sensor_id;sensor_type;location;lat;lon;timestamp;pressure;altitude;pressure_sealevel;temperature;humidity
8653;BME280;4364;52.426;9.424;2023-05-10T00:01:19;100214.94;;;14.30;49.72
8653;BME280;4364;52.426;9.424;2023-05-10T00:03:45;100212.44;;;14.42;49.41
8653;BME280;4364;52.426;9.424;2023-05-10T00:06:12;100218.16;;;14.32;49.54
8653;BME280;4364;52.426;9.424;2023-05-10T00:08:38;100217.56;;;14.35;50.01
8653;BME280;4364;52.426;9.424;2023-05-10T00:11:05;100212.59;;;14.15;52.23
8653;BME280;4364;52.426;9.424;2023-05-10T00:13:31;100209.44;;;13.99;53.83
8653;BME280;4364;52.426;9.424;2023-05-10T00:15:58;100205.22;;;13.93;53.61
8653;BME280;4364;52.426;9.424;2023-05-10T00:18:25;100210.06;;;13.96;54.21
8653;BME280;4364;52.426;9.424;2023-05-10T00:20:51;100207.50;;;13.99;54.06
8653;BME280;4364;52.426;9.424;2023-05-10T00:23:17;100205.28;;;14.01;54.27
8653;BME280;4364;52.426;9.424;2023-05-10T00:25:44;100195.47;;;14.00;53.97
8653;BME280;4364;52.426;9.424;2023-05-10T00:28:10;100202.22;;;14.03;52.76
8653;BME280;4364;52.426;9.424;2023-05-10T00:30:37;100189.25;;;13.86;53.87
8653;BME280;4364;52.426;9.424;2023-05-10T00:33:03;100190.88;;;13.87;53.61
8653;BME280;4364;52.426;9.424;2023-05-10T00:35:30;100191.50;;;13.84;53.49
8653;BME280;4364;52.426;9.424;2023-05-10T00:37:56;100188.66;;;13.89;53.61
8653;BME280;4364;52.426;9.424;2023-05-10T00:40:23;100185.72;;;13.85;53.05
8653;BME280;4364;52.426;9.424;2023-05-10T00:42:54;100185.59;;;13.90;53.26
8653;BME280;4364;52.426;9.424;2023-05-10T00:45:21;100177.09;;;13.69;53.88
8653;BME280;4364;52.426;9.424;2023-05-10T00:47:47;100175.09;;;13.61;53.72
8653;BME280;4364;52.426;9.424;2023-05-10T00:50:14;100174.13;;;13.57;54.26
8653;BME280;4364;52.426;9.424;2023-05-10T00:52:42;100170.72;;;13.51;54.63
8653;BME280;4364;52.426;9.424;2023-05-10T00:55:11;100170.72;;;13.51;54.39
8653;BME280;4364;52.426;9.424;2023-05-10T00:57:38;100171.50;;;13.52;54.37
8653;BME280;4364;52.426;9.424;2023-05-10T01:00:06;100169.44;;;13.58;54.95
8653;BME280;4364;52.426;9.424;2023-05-10T01:02:34;100168.16;;;13.55;55.54
8653;BME280;4364;52.426;9.424;2023-05-10T01:05:02;100165.56;;;13.50;56.26
8653;BME280;4364;52.426;9.424;2023-05-10T01:07:30;100167.88;;;13.43;57.04
8653;BME280;4364;52.426;9.424;2023-05-10T01:09:57;100161.13;;;13.40;57.83
8653;BME280;4364;52.426;9.424;2023-05-10T01:12:24;100165.41;;;13.32;58.24
8653;BME280;4364;52.426;9.424;2023-05-10T01:14:50;100166.59;;;13.26;57.50
8653;BME280;4364;52.426;9.424;2023-05-10T01:17:17;100162.13;;;13.30;56.68
8653;BME280;4364;52.426;9.424;2023-05-10T01:19:43;100166.41;;;13.23;57.09
8653;BME280;4364;52.426;9.424;2023-05-10T01:22:25;100167.50;;;13.36;56.60
8653;BME280;4364;52.426;9.424;2023-05-10T01:31:00;100156.19;;;13.28;57.09
8653;BME280;4364;52.426;9.424;2023-05-10T01:38:57;100161.25;;;13.21;57.26
8653;BME280;4364;52.426;9.424;2023-05-10T01:41:40;100165.19;;;13.29;57.34
8653;BME280;4364;52.426;9.424;2023-05-10T01:47:15;100164.63;;;13.18;57.48
8653;BME280;4364;52.426;9.424;2023-05-10T01:49:45;100165.53;;;13.13;57.91
8653;BME280;4364;52.426;9.424;2023-05-10T01:52:16;100157.03;;;13.15;58.11
8653;BME280;4364;52.426;9.424;2023-05-10T01:54:52;100154.19;;;13.20;58.01
8653;BME280;4364;52.426;9.424;2023-05-10T01:57:22;100150.13;;;13.18;57.85
8653;BME280;4364;52.426;9.424;2023-05-10T01:59:52;100154.50;;;13.19;57.85
8653;BME280;4364;52.426;9.424;2023-05-10T02:02:20;100147.91;;;13.20;57.68
8653;BME280;4364;52.426;9.424;2023-05-10T02:04:49;100156.78;;;13.25;57.50
8653;BME280;4364;52.426;9.424;2023-05-10T02:07:16;100162.75;;;13.27;57.93
8653;BME280;4364;52.426;9.424;2023-05-10T02:09:44;100167.91;;;13.29;57.59
8653;BME280;4364;52.426;9.424;2023-05-10T02:12:15;100164.06;;;13.30;57.65
8653;BME280;4364;52.426;9.424;2023-05-10T02:14:43;100166.50;;;13.31;57.73
8653;BME280;4364;52.426;9.424;2023-05-10T02:17:11;100163.97;;;13.35;57.54
8653;BME280;4364;52.426;9.424;2023-05-10T02:19:40;100167.22;;;13.37;57.25
8653;BME280;4364;52.426;9.424;2023-05-10T02:22:08;100163.03;;;13.40;57.39
8653;BME280;4364;52.426;9.424;2023-05-10T02:24:36;100160.13;;;13.36;56.93
8653;BME280;4364;52.426;9.424;2023-05-10T02:27:04;100163.38;;;13.38;57.28
8653;BME280;4364;52.426;9.424;2023-05-10T02:29:32;100154.22;;;13.43;56.16
8653;BME280;4364;52.426;9.424;2023-05-10T02:32:00;100152.75;;;13.37;56.34
8653;BME280;4364;52.426;9.424;2023-05-10T02:34:29;100163.03;;;13.40;56.62
8653;BME280;4364;52.426;9.424;2023-05-10T02:36:57;100158.84;;;13.33;57.44
8653;BME280;4364;52.426;9.424;2023-05-10T02:39:27;100157.00;;;13.29;58.41
8653;BME280;4364;52.426;9.424;2023-05-10T02:41:56;100154.06;;;13.25;58.85
8653;BME280;4364;52.426;9.424;2023-05-10T02:44:23;100145.88;;;13.25;59.63
8653;BME280;4364;52.426;9.424;2023-05-10T02:46:53;100152.38;;;13.15;60.08
8653;BME280;4364;52.426;9.424;2023-05-10T02:49:22;100149.56;;;13.07;60.64
8653;BME280;4364;52.426;9.424;2023-05-10T02:51:51;100145.72;;;13.08;61.03
8653;BME280;4364;52.426;9.424;2023-05-10T02:54:26;100147.81;;;13.11;61.46
8653;BME280;4364;52.426;9.424;2023-05-10T02:57:00;100148.97;;;13.10;62.60
8653;BME280;4364;52.426;9.424;2023-05-10T02:59:30;100149.66;;;13.15;62.21
8653;BME280;4364;52.426;9.424;2023-05-10T03:01:57;100141.94;;;13.18;62.80
8653;BME280;4364;52.426;9.424;2023-05-10T03:04:23;100146.13;;;13.15;62.42
8653;BME280;4364;52.426;9.424;2023-05-10T03:06:53;100135.81;;;13.12;62.98
8653;BME280;4364;52.426;9.424;2023-05-10T03:09:19;100143.19;;;13.11;62.92
8653;BME280;4364;52.426;9.424;2023-05-10T03:18:06;100142.88;;;13.13;64.31
8653;BME280;4364;52.426;9.424;2023-05-10T03:20:47;100147.72;;;13.16;64.55
8653;BME280;4364;52.426;9.424;2023-05-10T03:25:46;100152.69;;;13.14;64.87
8653;BME280;4364;52.426;9.424;2023-05-10T03:28:14;100149.06;;;13.05;64.57
8653;BME280;4364;52.426;9.424;2023-05-10T03:30:42;100149.38;;;13.03;64.37
8653;BME280;4364;52.426;9.424;2023-05-10T03:33:11;100149.50;;;12.98;64.34
8653;BME280;4364;52.426;9.424;2023-05-10T03:35:41;100141.19;;;12.89;64.16
8653;BME280;4364;52.426;9.424;2023-05-10T03:38:07;100140.22;;;12.85;64.91
8653;BME280;4364;52.426;9.424;2023-05-10T03:40:34;100134.16;;;12.88;65.27
8653;BME280;4364;52.426;9.424;2023-05-10T03:43:01;100136.25;;;12.91;65.36
8653;BME280;4364;52.426;9.424;2023-05-10T03:45:28;100144.13;;;12.93;65.65
8653;BME280;4364;52.426;9.424;2023-05-10T03:47:54;100142.41;;;12.97;65.86
8653;BME280;4364;52.426;9.424;2023-05-10T03:50:21;100133.91;;;12.98;66.29
8653;BME280;4364;52.426;9.424;2023-05-10T03:52:48;100140.19;;;12.99;66.16
8653;BME280;4364;52.426;9.424;2023-05-10T03:55:14;100139.38;;;12.98;66.25
8653;BME280;4364;52.426;9.424;2023-05-10T03:57:40;100140.91;;;12.91;65.72
8653;BME280;4364;52.426;9.424;2023-05-10T04:00:08;100136.47;;;12.95;65.55
8653;BME280;4364;52.426;9.424;2023-05-10T04:02:41;100138.16;;;12.91;66.00
8653;BME280;4364;52.426;9.424;2023-05-10T04:05:13;100140.41;;;12.89;66.39
8653;BME280;4364;52.426;9.424;2023-05-10T04:07:40;100140.28;;;12.94;66.41
8653;BME280;4364;52.426;9.424;2023-05-10T04:10:07;100146.97;;;13.02;66.12
8653;BME280;4364;52.426;9.424;2023-05-10T04:12:34;100148.56;;;13.03;66.60
8653;BME280;4364;52.426;9.424;2023-05-10T04:15:00;100154.53;;;13.05;67.29
8653;BME280;4364;52.426;9.424;2023-05-10T04:17:27;100148.38;;;12.99;67.50
8653;BME280;4364;52.426;9.424;2023-05-10T04:19:53;100149.50;;;12.98;67.34
8653;BME280;4364;52.426;9.424;2023-05-10T04:22:20;100150.91;;;12.95;67.51
8653;BME280;4364;52.426;9.424;2023-05-10T04:24:47;100156.34;;;12.95;68.03
8653;BME280;4364;52.426;9.424;2023-05-10T04:27:13;100145.44;;;12.95;68.72
8653;BME280;4364;52.426;9.424;2023-05-10T04:29:40;100156.97;;;12.92;68.78
8653;BME280;4364;52.426;9.424;2023-05-10T04:32:07;100152.31;;;12.93;69.17
8653;BME280;4364;52.426;9.424;2023-05-10T04:34:34;100151.00;;;12.90;69.54
8653;BME280;4364;52.426;9.424;2023-05-10T04:37:00;100152.13;;;12.75;69.85
8653;BME280;4364;52.426;9.424;2023-05-10T04:39:27;100159.81;;;12.59;70.13
8653;BME280;4364;52.426;9.424;2023-05-10T04:41:53;100157.50;;;12.39;71.68
8653;BME280;4364;52.426;9.424;2023-05-10T04:44:20;100148.81;;;12.37;71.63
8653;BME280;4364;52.426;9.424;2023-05-10T04:46:46;100164.97;;;12.33;72.51
8653;BME280;4364;52.426;9.424;2023-05-10T04:49:13;100170.72;;;12.18;74.91
8653;BME280;4364;52.426;9.424;2023-05-10T04:51:40;100172.47;;;11.95;77.45
8653;BME280;4364;52.426;9.424;2023-05-10T04:54:07;100164.22;;;12.00;76.96
8653;BME280;4364;52.426;9.424;2023-05-10T04:56:33;100174.13;;;11.91;79.44
8653;BME280;4364;52.426;9.424;2023-05-10T04:59:00;100177.09;;;11.94;78.56
8653;BME280;4364;52.426;9.424;2023-05-10T05:01:26;100188.66;;;12.05;79.03
8653;BME280;4364;52.426;9.424;2023-05-10T05:03:53;100195.53;;;12.16;79.83
8653;BME280;4364;52.426;9.424;2023-05-10T05:06:20;100204.72;;;12.20;80.64
8653;BME280;4364;52.426;9.424;2023-05-10T05:08:47;100217.06;;;12.18;82.23
8653;BME280;4364;52.426;9.424;2023-05-10T05:11:15;100213.78;;;12.16;84.91
8653;BME280;4364;52.426;9.424;2023-05-10T05:13:42;100219.63;;;12.09;86.40
8653;BME280;4364;52.426;9.424;2023-05-10T05:16:08;100227.97;;;12.18;88.07
8653;BME280;4364;52.426;9.424;2023-05-10T05:18:35;100230.44;;;12.14;88.90
8653;BME280;4364;52.426;9.424;2023-05-10T05:21:01;100225.72;;;12.20;89.43
8653;BME280;4364;52.426;9.424;2023-05-10T05:23:28;100221.97;;;12.16;90.39
8653;BME280;4364;52.426;9.424;2023-05-10T05:25:54;100223.41;;;12.13;90.25
8653;BME280;4364;52.426;9.424;2023-05-10T05:28:21;100216.56;;;11.97;91.71
8653;BME280;4364;52.426;9.424;2023-05-10T05:30:48;100217.47;;;11.92;92.58
8653;BME280;4364;52.426;9.424;2023-05-10T05:33:14;100212.22;;;11.96;93.85
8653;BME280;4364;52.426;9.424;2023-05-10T05:35:43;100219.22;;;12.02;94.37
8653;BME280;4364;52.426;9.424;2023-05-10T05:38:13;100211.75;;;12.08;94.87
8653;BME280;4364;52.426;9.424;2023-05-10T05:40:40;100209.25;;;12.11;95.13
8653;BME280;4364;52.426;9.424;2023-05-10T05:43:06;100221.34;;;12.05;96.01
8653;BME280;4364;52.426;9.424;2023-05-10T05:45:34;100220.06;;;12.16;96.23
8653;BME280;4364;52.426;9.424;2023-05-10T05:48:00;100214.44;;;12.27;96.33
8653;BME280;4364;52.426;9.424;2023-05-10T05:50:27;100221.41;;;12.33;96.64
8653;BME280;4364;52.426;9.424;2023-05-10T05:52:53;100220.81;;;12.36;97.50
8653;BME280;4364;52.426;9.424;2023-05-10T05:55:20;100225.88;;;12.42;97.54
8653;BME280;4364;52.426;9.424;2023-05-10T05:57:46;100227.69;;;12.47;98.05
8653;BME280;4364;52.426;9.424;2023-05-10T06:00:13;100230.03;;;12.54;98.21
8653;BME280;4364;52.426;9.424;2023-05-10T06:02:39;100232.75;;;12.54;98.46
8653;BME280;4364;52.426;9.424;2023-05-10T06:05:07;100243.06;;;12.57;99.04
8653;BME280;4364;52.426;9.424;2023-05-10T06:07:34;100234.78;;;12.62;99.43
8653;BME280;4364;52.426;9.424;2023-05-10T06:10:00;100239.94;;;12.64;99.74
8653;BME280;4364;52.426;9.424;2023-05-10T06:12:27;100243.75;;;12.63;100.00
8653;BME280;4364;52.426;9.424;2023-05-10T06:14:53;100255.81;;;12.62;100.00
8653;BME280;4364;52.426;9.424;2023-05-10T06:17:20;100254.88;;;12.66;100.00
8653;BME280;4364;52.426;9.424;2023-05-10T06:19:47;100259.22;;;12.67;100.00
8653;BME280;4364;52.426;9.424;2023-05-10T06:22:14;100256.22;;;12.69;100.00
8653;BME280;4364;52.426;9.424;2023-05-10T06:24:40;100263.00;;;12.71;100.00
8653;BME280;4364;52.426;9.424;2023-05-10T06:27:07;100258.34;;;12.72;100.00
8653;BME280;4364;52.426;9.424;2023-05-10T06:29:34;100258.53;;;12.75;100.00
8653;BME280;4364;52.426;9.424;2023-05-10T06:32:00;100260.88;;;12.82;100.00
8653;BME280;4364;52.426;9.424;2023-05-10T06:34:27;100259.66;;;12.88;100.00
8653;BME280;4364;52.426;9.424;2023-05-10T06:36:53;100266.41;;;12.91;100.00
8653;BME280;4364;52.426;9.424;2023-05-10T06:39:20;100269.56;;;12.98;100.00
8653;BME280;4364;52.426;9.424;2023-05-10T06:41:46;100271.47;;;12.97;100.00
8653;BME280;4364;52.426;9.424;2023-05-10T06:44:13;100271.06;;;12.90;100.00
8653;BME280;4364;52.426;9.424;2023-05-10T06:46:39;100271.78;;;12.82;100.00
8653;BME280;4364;52.426;9.424;2023-05-10T06:49:06;100273.00;;;12.90;100.00
8653;BME280;4364;52.426;9.424;2023-05-10T06:51:32;100275.41;;;12.77;100.00
8653;BME280;4364;52.426;9.424;2023-05-10T06:53:59;100279.66;;;12.70;100.00
8653;BME280;4364;52.426;9.424;2023-05-10T06:56:25;100286.72;;;12.71;100.00
8653;BME280;4364;52.426;9.424;2023-05-10T06:58:52;100295.41;;;12.73;100.00
8653;BME280;4364;52.426;9.424;2023-05-10T07:01:18;100287.66;;;12.80;100.00
8653;BME280;4364;52.426;9.424;2023-05-10T07:03:45;100290.56;;;12.70;100.00
8653;BME280;4364;52.426;9.424;2023-05-10T07:06:12;100295.50;;;12.68;100.00
8653;BME280;4364;52.426;9.424;2023-05-10T07:08:55;100299.06;;;12.82;100.00
8653;BME280;4364;52.426;9.424;2023-05-10T07:11:21;100305.50;;;12.72;100.00
8653;BME280;4364;52.426;9.424;2023-05-10T07:13:48;100302.78;;;12.72;100.00
8653;BME280;4364;52.426;9.424;2023-05-10T07:16:14;100304.41;;;12.73;100.00
8653;BME280;4364;52.426;9.424;2023-05-10T07:18:41;100315.91;;;12.70;100.00
8653;BME280;4364;52.426;9.424;2023-05-10T07:21:07;100317.03;;;12.69;100.00
8653;BME280;4364;52.426;9.424;2023-05-10T07:23:34;100317.66;;;12.80;100.00
8653;BME280;4364;52.426;9.424;2023-05-10T07:26:00;100320.09;;;12.95;100.00
8653;BME280;4364;52.426;9.424;2023-05-10T07:28:27;100328.78;;;12.97;100.00
8653;BME280;4364;52.426;9.424;2023-05-10T07:30:53;100324.34;;;13.02;100.00
8653;BME280;4364;52.426;9.424;2023-05-10T07:33:19;100330.81;;;13.06;100.00
8653;BME280;4364;52.426;9.424;2023-05-10T07:35:46;100338.22;;;13.05;100.00
8653;BME280;4364;52.426;9.424;2023-05-10T07:38:12;100339.41;;;13.13;100.00
8653;BME280;4364;52.426;9.424;2023-05-10T07:40:39;100341.72;;;13.06;100.00
8653;BME280;4364;52.426;9.424;2023-05-10T07:43:06;100348.53;;;13.08;100.00
8653;BME280;4364;52.426;9.424;2023-05-10T07:45:33;100345.28;;;13.20;100.00
8653;BME280;4364;52.426;9.424;2023-05-10T07:48:00;100342.97;;;13.13;100.00
8653;BME280;4364;52.426;9.424;2023-05-10T07:50:27;100347.81;;;13.16;100.00
8653;BME280;4364;52.426;9.424;2023-05-10T07:52:53;100354.59;;;13.19;100.00
8653;BME280;4364;52.426;9.424;2023-05-10T07:55:20;100352.06;;;13.23;100.00
8653;BME280;4364;52.426;9.424;2023-05-10T07:57:49;100355.63;;;13.37;100.00
8653;BME280;4364;52.426;9.424;2023-05-10T08:00:19;100365.34;;;13.43;100.00
8653;BME280;4364;52.426;9.424;2023-05-10T08:02:47;100363.03;;;13.37;100.00
8653;BME280;4364;52.426;9.424;2023-05-10T08:05:14;100368.50;;;13.37;100.00
8653;BME280;4364;52.426;9.424;2023-05-10T08:07:41;100380.31;;;13.32;100.00
8653;BME280;4364;52.426;9.424;2023-05-10T08:10:09;100378.16;;;13.29;100.00
8653;BME280;4364;52.426;9.424;2023-05-10T08:12:37;100387.38;;;13.33;100.00
8653;BME280;4364;52.426;9.424;2023-05-10T08:15:05;100389.19;;;13.38;100.00
8653;BME280;4364;52.426;9.424;2023-05-10T08:17:32;100397.28;;;13.43;100.00
8653;BME280;4364;52.426;9.424;2023-05-10T08:19:59;100396.09;;;13.35;100.00
8653;BME280;4364;52.426;9.424;2023-05-10T08:22:26;100400.78;;;13.29;100.00
8653;BME280;4364;52.426;9.424;2023-05-10T08:24:52;100408.00;;;13.25;100.00
8653;BME280;4364;52.426;9.424;2023-05-10T08:27:19;100407.06;;;13.16;100.00
8653;BME280;4364;52.426;9.424;2023-05-10T08:29:45;100413.09;;;13.13;100.00
8653;BME280;4364;52.426;9.424;2023-05-10T08:32:16;100415.25;;;13.16;100.00
8653;BME280;4364;52.426;9.424;2023-05-10T08:34:42;100414.66;;;13.19;100.00
8653;BME280;4364;52.426;9.424;2023-05-10T08:37:09;100420.38;;;13.04;100.00
8653;BME280;4364;52.426;9.424;2023-05-10T08:39:39;100413.97;;;12.94;100.00
8653;BME280;4364;52.426;9.424;2023-05-10T08:42:06;100424.56;;;12.82;100.00
8653;BME280;4364;52.426;9.424;2023-05-10T08:44:35;100422.16;;;12.94;100.00
8653;BME280;4364;52.426;9.424;2023-05-10T08:47:05;100427.47;;;13.05;100.00
8653;BME280;4364;52.426;9.424;2023-05-10T08:49:33;100429.41;;;13.18;100.00
8653;BME280;4364;52.426;9.424;2023-05-10T08:52:02;100437.06;;;13.35;100.00
8653;BME280;4364;52.426;9.424;2023-05-10T08:54:32;100433.41;;;13.40;100.00
8653;BME280;4364;52.426;9.424;2023-05-10T08:56:59;100432.28;;;13.41;100.00
8653;BME280;4364;52.426;9.424;2023-05-10T08:59:27;100439.28;;;13.47;100.00
8653;BME280;4364;52.426;9.424;2023-05-10T09:01:56;100436.84;;;13.59;100.00
8653;BME280;4364;52.426;9.424;2023-05-10T09:04:23;100441.31;;;13.55;100.00
8653;BME280;4364;52.426;9.424;2023-05-10T09:06:50;100450.22;;;13.61;100.00
8653;BME280;4364;52.426;9.424;2023-05-10T09:09:18;100449.50;;;13.83;100.00
8653;BME280;4364;52.426;9.424;2023-05-10T09:11:45;100451.72;;;13.95;100.00
8653;BME280;4364;52.426;9.424;2023-05-10T09:14:12;100448.97;;;13.95;100.00
8653;BME280;4364;52.426;9.424;2023-05-10T09:16:39;100451.31;;;13.87;100.00
8653;BME280;4364;52.426;9.424;2023-05-10T09:19:07;100457.81;;;13.92;100.00
8653;BME280;4364;52.426;9.424;2023-05-10T09:21:35;100450.81;;;13.99;100.00
8653;BME280;4364;52.426;9.424;2023-05-10T09:24:06;100458.47;;;14.11;100.00
8653;BME280;4364;52.426;9.424;2023-05-10T09:26:34;100459.31;;;14.12;100.00
8653;BME280;4364;52.426;9.424;2023-05-10T09:29:03;100462.88;;;14.35;100.00
8653;BME280;4364;52.426;9.424;2023-05-10T09:31:47;100469.38;;;14.39;100.00
8653;BME280;4364;52.426;9.424;2023-05-10T09:34:18;100471.78;;;14.40;100.00
8653;BME280;4364;52.426;9.424;2023-05-10T09:36:56;100468.44;;;14.43;100.00
8653;BME280;4364;52.426;9.424;2023-05-10T09:39:34;100472.41;;;14.37;99.41
8653;BME280;4364;52.426;9.424;2023-05-10T09:42:05;100475.53;;;14.44;99.95
8653;BME280;4364;52.426;9.424;2023-05-10T09:44:33;100474.78;;;14.53;98.30
8653;BME280;4364;52.426;9.424;2023-05-10T09:47:01;100474.78;;;14.53;99.23
8653;BME280;4364;52.426;9.424;2023-05-10T09:49:28;100481.69;;;14.50;99.56
8653;BME280;4364;52.426;9.424;2023-05-10T09:54:28;100470.72;;;14.64;98.24
8653;BME280;4364;52.426;9.424;2023-05-10T09:56:55;100474.72;;;14.80;98.41
8653;BME280;4364;52.426;9.424;2023-05-10T09:59:25;100489.41;;;15.07;96.52
8653;BME280;4364;52.426;9.424;2023-05-10T10:01:57;100480.63;;;15.19;92.88
8653;BME280;4364;52.426;9.424;2023-05-10T10:04:27;100488.69;;;15.24;94.46
8653;BME280;4364;52.426;9.424;2023-05-10T10:07:02;100494.47;;;15.45;93.06
8653;BME280;4364;52.426;9.424;2023-05-10T10:09:29;100503.03;;;15.52;90.18
8653;BME280;4364;52.426;9.424;2023-05-10T10:11:57;100504.59;;;15.45;90.29
8653;BME280;4364;52.426;9.424;2023-05-10T10:14:24;100496.81;;;15.38;89.92
8653;BME280;4364;52.426;9.424;2023-05-10T10:16:51;100500.91;;;15.49;91.81
8653;BME280;4364;52.426;9.424;2023-05-10T10:19:33;100502.63;;;15.68;90.98
8653;BME280;4364;52.426;9.424;2023-05-10T10:22:02;100504.25;;;15.69;91.68
8653;BME280;4364;52.426;9.424;2023-05-10T10:24:29;100504.63;;;15.76;91.50
8653;BME280;4364;52.426;9.424;2023-05-10T10:27:01;100507.84;;;15.78;90.43
8653;BME280;4364;52.426;9.424;2023-05-10T10:29:41;100505.34;;;15.68;86.35
8653;BME280;4364;52.426;9.424;2023-05-10T10:32:33;100504.09;;;15.74;88.12
8653;BME280;4364;52.426;9.424;2023-05-10T10:35:02;100506.91;;;15.83;88.28
8653;BME280;4364;52.426;9.424;2023-05-10T10:37:46;100509.97;;;15.90;86.83
8653;BME280;4364;52.426;9.424;2023-05-10T10:40:30;100509.38;;;16.02;88.81
8653;BME280;4364;52.426;9.424;2023-05-10T10:43:23;100506.63;;;16.02;88.88
8653;BME280;4364;52.426;9.424;2023-05-10T10:46:10;100508.59;;;16.19;87.06
8653;BME280;4364;52.426;9.424;2023-05-10T10:48:36;100507.16;;;16.21;84.14
8653;BME280;4364;52.426;9.424;2023-05-10T10:51:03;100509.59;;;16.23;82.71
8653;BME280;4364;52.426;9.424;2023-05-10T10:53:29;100514.72;;;16.07;81.59
8653;BME280;4364;52.426;9.424;2023-05-10T10:56:23;100514.25;;;16.14;83.31
8653;BME280;4364;52.426;9.424;2023-05-10T10:58:51;100511.69;;;16.17;82.85
8653;BME280;4364;52.426;9.424;2023-05-10T11:01:19;100513.16;;;16.32;82.17
8653;BME280;4364;52.426;9.424;2023-05-10T11:04:17;100512.41;;;16.58;81.87
8653;BME280;4364;52.426;9.424;2023-05-10T11:06:44;100511.09;;;16.99;81.10
8653;BME280;4364;52.426;9.424;2023-05-10T11:09:12;100505.06;;;17.32;80.42
8653;BME280;4364;52.426;9.424;2023-05-10T11:11:49;100507.56;;;17.63;79.86
8653;BME280;4364;52.426;9.424;2023-05-10T11:14:20;100513.06;;;17.63;78.95
8653;BME280;4364;52.426;9.424;2023-05-10T11:16:47;100511.91;;;17.73;75.98
8653;BME280;4364;52.426;9.424;2023-05-10T11:19:15;100503.66;;;17.73;74.29
8653;BME280;4364;52.426;9.424;2023-05-10T11:22:12;100502.03;;;17.25;74.90
8653;BME280;4364;52.426;9.424;2023-05-10T11:24:39;100511.28;;;17.02;76.25
8653;BME280;4364;52.426;9.424;2023-05-10T11:27:06;100508.69;;;17.06;78.10
8653;BME280;4364;52.426;9.424;2023-05-10T11:29:33;100506.19;;;17.39;77.80
8653;BME280;4364;52.426;9.424;2023-05-10T11:31:59;100502.47;;;17.91;75.97
8653;BME280;4364;52.426;9.424;2023-05-10T11:34:31;100503.50;;;18.38;71.90
8653;BME280;4364;52.426;9.424;2023-05-10T11:37:01;100510.88;;;18.46;69.73
8653;BME280;4364;52.426;9.424;2023-05-10T11:39:29;100513.41;;;18.30;71.53
8653;BME280;4364;52.426;9.424;2023-05-10T11:41:57;100511.78;;;18.29;69.00
8653;BME280;4364;52.426;9.424;2023-05-10T11:44:29;100511.94;;;18.32;68.41
8653;BME280;4364;52.426;9.424;2023-05-10T11:46:59;100520.13;;;18.20;68.90
8653;BME280;4364;52.426;9.424;2023-05-10T11:49:26;100519.19;;;18.16;69.10
8653;BME280;4364;52.426;9.424;2023-05-10T11:51:52;100521.75;;;18.21;69.21
8653;BME280;4364;52.426;9.424;2023-05-10T11:54:19;100524.16;;;18.44;70.16
8653;BME280;4364;52.426;9.424;2023-05-10T11:56:45;100518.59;;;18.74;69.24
8653;BME280;4364;52.426;9.424;2023-05-10T11:59:14;100521.50;;;18.77;67.31
8653;BME280;4364;52.426;9.424;2023-05-10T12:01:41;100522.63;;;18.55;68.41
8653;BME280;4364;52.426;9.424;2023-05-10T12:04:07;100521.59;;;18.18;68.84
8653;BME280;4364;52.426;9.424;2023-05-10T12:06:39;100524.81;;;18.20;69.63
8653;BME280;4364;52.426;9.424;2023-05-10T12:09:07;100527.19;;;18.00;69.59
8653;BME280;4364;52.426;9.424;2023-05-10T12:11:37;100527.38;;;17.95;70.38
8653;BME280;4364;52.426;9.424;2023-05-10T12:14:09;100524.44;;;18.00;70.16
8653;BME280;4364;52.426;9.424;2023-05-10T12:16:36;100525.00;;;18.14;70.16
8653;BME280;4364;52.426;9.424;2023-05-10T12:19:02;100531.44;;;17.89;69.18
8653;BME280;4364;52.426;9.424;2023-05-10T12:21:29;100528.03;;;17.83;70.30
8653;BME280;4364;52.426;9.424;2023-05-10T12:24:03;100525.19;;;18.09;70.87
8653;BME280;4364;52.426;9.424;2023-05-10T12:26:31;100533.06;;;18.20;70.34
8653;BME280;4364;52.426;9.424;2023-05-10T12:29:18;100527.25;;;18.21;68.43
8653;BME280;4364;52.426;9.424;2023-05-10T12:31:56;100523.31;;;18.31;68.66
8653;BME280;4364;52.426;9.424;2023-05-10T12:34:30;100527.75;;;18.44;69.05
8653;BME280;4364;52.426;9.424;2023-05-10T12:36:56;100533.28;;;18.36;69.47
8653;BME280;4364;52.426;9.424;2023-05-10T12:39:23;100534.69;;;17.91;70.73
8653;BME280;4364;52.426;9.424;2023-05-10T12:41:51;100546.50;;;17.83;71.51
8653;BME280;4364;52.426;9.424;2023-05-10T12:44:18;100543.69;;;17.53;73.43
8653;BME280;4364;52.426;9.424;2023-05-10T12:46:44;100560.03;;;17.32;74.04
8653;BME280;4364;52.426;9.424;2023-05-10T12:49:11;100557.19;;;17.11;74.22
8653;BME280;4364;52.426;9.424;2023-05-10T12:51:38;100559.91;;;16.93;74.60
8653;BME280;4364;52.426;9.424;2023-05-10T12:54:04;100560.84;;;16.80;74.58
8653;BME280;4364;52.426;9.424;2023-05-10T12:56:31;100568.78;;;16.90;75.18
8653;BME280;4364;52.426;9.424;2023-05-10T12:58:57;100568.28;;;17.49;73.07
8653;BME280;4364;52.426;9.424;2023-05-10T13:01:25;100560.72;;;17.93;72.23
8653;BME280;4364;52.426;9.424;2023-05-10T13:03:51;100562.69;;;18.23;70.18
8653;BME280;4364;52.426;9.424;2023-05-10T13:06:18;100563.16;;;18.25;70.43
8653;BME280;4364;52.426;9.424;2023-05-10T13:08:44;100571.28;;;18.21;70.22
8653;BME280;4364;52.426;9.424;2023-05-10T13:11:11;100571.06;;;17.96;70.03
8653;BME280;4364;52.426;9.424;2023-05-10T13:13:37;100571.25;;;17.74;72.76
8653;BME280;4364;52.426;9.424;2023-05-10T13:16:04;100567.25;;;17.63;70.59
8653;BME280;4364;52.426;9.424;2023-05-10T13:18:31;100579.94;;;17.37;70.69
8653;BME280;4364;52.426;9.424;2023-05-10T13:20:57;100576.38;;;17.28;71.66
8653;BME280;4364;52.426;9.424;2023-05-10T13:23:25;100570.91;;;17.11;73.02
8653;BME280;4364;52.426;9.424;2023-05-10T13:25:51;100580.28;;;17.10;73.50
8653;BME280;4364;52.426;9.424;2023-05-10T13:28:18;100581.41;;;17.00;74.20
8653;BME280;4364;52.426;9.424;2023-05-10T13:30:44;100576.88;;;16.95;75.51
8653;BME280;4364;52.426;9.424;2023-05-10T13:33:11;100577.19;;;16.85;75.16
8653;BME280;4364;52.426;9.424;2023-05-10T13:35:37;100583.00;;;16.92;75.58
8653;BME280;4364;52.426;9.424;2023-05-10T13:38:04;100583.84;;;16.93;75.38
8653;BME280;4364;52.426;9.424;2023-05-10T13:40:30;100583.19;;;17.04;75.87